createdAt,value
2023-11-23T00:01:08.942Z,50.40
2023-11-23T00:03:42.461Z,50.66
2023-11-23T00:06:10.858Z,50.58
2023-11-23T00:08:42.612Z,50.84
2023-11-23T00:11:11.195Z,50.85
2023-11-23T00:13:39.363Z,51.05
2023-11-23T00:16:08.606Z,50.96
2023-11-23T00:18:36.939Z,51.96
2023-11-23T00:21:05.083Z,52.27
2023-11-23T00:23:33.598Z,52.78
2023-11-23T00:26:04.779Z,52.48
2023-11-23T00:28:32.996Z,52.20
2023-11-23T00:31:00.796Z,51.73
2023-11-23T00:33:30.005Z,52.19
2023-11-23T00:35:58.025Z,53.00
2023-11-23T00:38:26.250Z,53.19
2023-11-23T00:40:54.000Z,52.76
2023-11-23T00:43:22.278Z,52.02
2023-11-23T00:45:50.633Z,52.35
2023-11-23T00:48:20.894Z,52.16
2023-11-23T00:50:49.111Z,51.67
2023-11-23T00:53:17.530Z,51.93
2023-11-23T00:55:45.496Z,52.24
2023-11-23T00:58:13.596Z,52.88
2023-11-23T01:00:43.332Z,52.95
2023-11-23T01:03:11.998Z,53.25
2023-11-23T01:05:39.911Z,52.94
2023-11-23T01:08:08.246Z,53.19
2023-11-23T01:10:36.028Z,53.98
2023-11-23T01:13:04.217Z,53.60
2023-11-23T01:15:33.206Z,54.04
2023-11-23T01:18:01.478Z,52.86
2023-11-23T01:20:29.716Z,52.84
2023-11-23T01:22:58.137Z,53.39
2023-11-23T01:25:26.048Z,53.33
2023-11-23T01:27:54.314Z,53.89
2023-11-23T01:30:22.450Z,53.01
2023-11-23T01:32:51.369Z,53.50
2023-11-23T01:35:24.295Z,53.63
2023-11-23T01:37:52.828Z,53.29
2023-11-23T01:40:21.206Z,53.03
2023-11-23T01:42:49.501Z,53.30
2023-11-23T01:45:18.240Z,52.67
2023-11-23T01:47:48.419Z,53.22
2023-11-23T01:50:17.733Z,54.29
2023-11-23T01:52:47.305Z,54.03
2023-11-23T01:55:15.770Z,55.41
2023-11-23T01:57:48.416Z,54.64
2023-11-23T02:00:19.170Z,55.34
2023-11-23T02:02:48.051Z,55.78
2023-11-23T02:05:19.078Z,53.97
2023-11-23T02:07:47.296Z,54.29
2023-11-23T02:10:16.433Z,53.92
2023-11-23T02:12:45.349Z,55.05
2023-11-23T02:15:13.680Z,55.14
2023-11-23T02:17:45.112Z,55.04
2023-11-23T02:20:13.284Z,53.43
2023-11-23T02:22:41.515Z,53.74
2023-11-23T02:25:09.802Z,53.67
2023-11-23T02:27:39.366Z,54.08
2023-11-23T02:30:08.272Z,53.90
2023-11-23T02:32:37.313Z,53.65
2023-11-23T02:35:05.777Z,53.88
2023-11-23T02:37:34.444Z,54.07
2023-11-23T02:40:02.323Z,54.31
2023-11-23T02:42:31.235Z,54.41
2023-11-23T02:45:01.530Z,55.28
2023-11-23T02:47:29.839Z,55.17
2023-11-23T02:49:58.635Z,54.60
2023-11-23T02:52:27.019Z,54.28
2023-11-23T02:54:54.926Z,53.89
2023-11-23T02:57:23.257Z,54.65
2023-11-23T02:59:51.367Z,54.44
2023-11-23T03:02:20.516Z,54.92
2023-11-23T03:04:48.484Z,53.52
2023-11-23T03:07:19.278Z,53.72
2023-11-23T03:09:47.236Z,54.65
2023-11-23T03:12:15.396Z,54.45
2023-11-23T03:14:43.334Z,54.15
2023-11-23T03:17:11.484Z,53.03
2023-11-23T03:19:39.695Z,54.38
2023-11-23T03:22:09.021Z,54.27
2023-11-23T03:24:37.015Z,54.25
2023-11-23T03:27:05.496Z,53.76
2023-11-23T03:29:33.394Z,54.42
2023-11-23T03:32:01.542Z,54.52
2023-11-23T03:34:29.647Z,54.69
2023-11-23T03:36:57.818Z,54.77
2023-11-23T03:39:25.939Z,54.62
2023-11-23T03:41:54.829Z,55.15
2023-11-23T03:44:22.792Z,54.96
2023-11-23T03:46:51.467Z,54.62
2023-11-23T03:49:19.589Z,54.61
2023-11-23T03:51:47.769Z,55.50
2023-11-23T03:54:16.174Z,55.55
2023-11-23T03:56:47.644Z,55.79
2023-11-23T03:59:17.867Z,55.82
2023-11-23T04:01:47.807Z,54.94
2023-11-23T04:04:15.749Z,54.90
2023-11-23T04:06:45.551Z,54.82
2023-11-23T04:09:13.929Z,54.97
2023-11-23T04:11:42.348Z,55.67
2023-11-23T04:14:10.089Z,54.91
2023-11-23T04:16:38.410Z,54.43
2023-11-23T04:19:06.168Z,54.77
2023-11-23T04:21:34.438Z,54.59
2023-11-23T04:24:02.218Z,53.91
2023-11-23T04:26:32.637Z,54.12
2023-11-23T04:29:00.383Z,54.41
2023-11-23T04:31:28.497Z,54.05
2023-11-23T04:33:56.366Z,53.89
2023-11-23T04:36:24.891Z,52.94
2023-11-23T04:38:52.708Z,52.89
2023-11-23T04:41:20.801Z,53.57
2023-11-23T04:43:48.600Z,53.78
2023-11-23T04:46:17.231Z,54.30
2023-11-23T04:48:45.401Z,54.52
2023-11-23T04:51:13.874Z,55.03
2023-11-23T04:53:41.652Z,54.45
2023-11-23T04:56:10.053Z,54.47
2023-11-23T04:58:38.132Z,54.29
2023-11-23T05:01:07.180Z,54.57
2023-11-23T05:03:36.781Z,54.68
2023-11-23T05:06:05.436Z,54.01
2023-11-23T05:08:33.228Z,53.92
2023-11-23T05:11:01.458Z,54.32
2023-11-23T05:13:29.441Z,54.36
2023-11-23T05:15:57.508Z,54.65
2023-11-23T05:18:25.445Z,54.28
2023-11-23T05:20:56.830Z,53.40
2023-11-23T05:23:25.649Z,52.57
2023-11-23T05:25:54.341Z,52.75
2023-11-23T05:28:23.173Z,53.69
2023-11-23T05:30:51.550Z,53.96
2023-11-23T05:33:21.111Z,54.64
2023-11-23T05:35:50.613Z,53.64
2023-11-23T05:38:18.770Z,54.20
2023-11-23T05:40:47.163Z,53.67
2023-11-23T05:43:15.550Z,53.23
2023-11-23T05:45:44.159Z,53.49
2023-11-23T06:03:14.511Z,52.73
2023-11-23T06:05:42.815Z,53.03
2023-11-23T06:08:10.666Z,53.31
2023-11-23T06:10:39.832Z,53.07
2023-11-23T06:13:07.637Z,52.58
2023-11-23T06:15:36.078Z,52.96
2023-11-23T06:18:13.300Z,51.75
2023-11-23T06:20:42.823Z,52.37
2023-11-23T06:23:11.678Z,52.74
2023-11-23T06:25:40.573Z,52.03
2023-11-23T06:28:15.091Z,52.36
2023-11-23T06:30:46.642Z,53.13
2023-11-23T06:33:15.279Z,52.66
2023-11-23T06:35:43.451Z,52.90
2023-11-23T06:38:11.280Z,52.02
2023-11-23T06:40:39.541Z,50.88
2023-11-23T06:43:07.413Z,50.95
2023-11-23T06:45:35.688Z,50.16
2023-11-23T06:48:03.707Z,50.51
2023-11-23T06:50:31.848Z,50.84
2023-11-23T06:53:00.862Z,49.45
2023-11-23T06:55:29.157Z,49.49
2023-11-23T06:57:57.010Z,49.50
2023-11-23T07:00:25.466Z,49.36
2023-11-23T07:02:57.163Z,49.46
2023-11-23T07:05:26.471Z,49.53
2023-11-23T07:07:55.588Z,49.77
2023-11-23T07:10:24.034Z,49.05
2023-11-23T07:12:52.506Z,49.72
2023-11-23T07:15:20.782Z,49.33
2023-11-23T07:17:49.297Z,49.66
2023-11-23T07:20:19.409Z,49.66
2023-11-23T07:22:47.196Z,49.98
2023-11-23T07:25:17.103Z,49.56
2023-11-23T07:27:45.847Z,49.73
2023-11-23T07:30:14.769Z,49.74
2023-11-23T07:32:42.739Z,50.57
2023-11-23T07:35:11.118Z,49.53
2023-11-23T07:37:38.979Z,49.43
2023-11-23T07:40:15.040Z,49.33
2023-11-23T07:42:45.076Z,48.87
2023-11-23T07:45:14.027Z,49.04
2023-11-23T07:47:43.482Z,48.86
2023-11-23T07:50:12.547Z,49.21
2023-11-23T07:52:40.411Z,50.06
2023-11-23T07:55:11.853Z,50.58
2023-11-23T07:57:40.330Z,50.96
2023-11-23T08:00:09.547Z,51.48
2023-11-23T08:02:37.938Z,50.59
2023-11-23T08:05:06.765Z,49.93
2023-11-23T08:07:35.385Z,50.10
2023-11-23T08:10:07.564Z,49.51
2023-11-23T08:12:35.838Z,49.55
2023-11-23T08:15:06.520Z,49.76
2023-11-23T08:17:34.634Z,50.07
2023-11-23T08:20:02.835Z,50.04
2023-11-23T08:22:30.830Z,49.47
2023-11-23T08:24:59.274Z,50.01
2023-11-23T08:27:27.177Z,50.95
2023-11-23T08:29:56.695Z,50.49
2023-11-23T08:32:24.489Z,50.94
2023-11-23T08:34:53.785Z,50.91
2023-11-23T08:37:24.079Z,50.81
2023-11-23T08:39:52.327Z,50.71
2023-11-23T08:42:20.614Z,50.55
2023-11-23T08:44:49.006Z,50.11
2023-11-23T08:47:17.040Z,50.47
2023-11-23T08:49:45.162Z,49.86
2023-11-23T08:52:13.106Z,50.15
2023-11-23T08:54:41.320Z,50.24
2023-11-23T08:57:09.131Z,51.26
2023-11-23T08:59:39.013Z,50.54
2023-11-23T09:02:17.274Z,50.28
2023-11-23T09:04:50.436Z,50.43
2023-11-23T09:07:21.147Z,50.33
2023-11-23T09:09:49.410Z,50.31
2023-11-23T09:12:18.404Z,50.02
2023-11-23T09:14:49.596Z,50.25
2023-11-23T09:17:20.689Z,50.49
2023-11-23T09:19:49.119Z,50.87
2023-11-23T09:22:17.106Z,51.55
2023-11-23T09:24:45.328Z,51.57
2023-11-23T09:27:14.000Z,52.23
2023-11-23T09:29:42.126Z,53.30
2023-11-23T09:32:13.177Z,53.19
2023-11-23T09:34:41.840Z,53.25
2023-11-23T09:37:09.638Z,53.68
2023-11-23T09:39:38.212Z,53.49
2023-11-23T09:42:08.570Z,53.98
2023-11-23T09:44:37.665Z,53.97
2023-11-23T09:47:07.842Z,54.03
2023-11-23T09:49:38.758Z,54.23
2023-11-23T09:52:08.528Z,53.88
2023-11-23T09:54:37.495Z,54.00
2023-11-23T09:57:06.370Z,54.81
2023-11-23T09:59:34.841Z,54.90
2023-11-23T10:02:06.584Z,54.39
2023-11-23T10:04:35.236Z,55.00
2023-11-23T10:07:05.090Z,54.91
2023-11-23T10:09:37.442Z,55.09
2023-11-23T10:12:05.530Z,55.04
2023-11-23T10:14:33.706Z,55.37
2023-11-23T10:17:01.839Z,55.00
2023-11-23T10:19:30.156Z,54.75
2023-11-23T10:22:01.247Z,54.71
2023-11-23T10:24:30.546Z,54.35
2023-11-23T10:26:58.677Z,54.80
2023-11-23T10:29:33.741Z,54.95
2023-11-23T10:32:01.717Z,55.04
2023-11-23T10:34:30.916Z,55.01
2023-11-23T10:37:00.535Z,54.53
2023-11-23T10:39:32.209Z,54.16
2023-11-23T10:42:01.246Z,54.65
2023-11-23T10:44:31.232Z,54.50
2023-11-23T10:47:05.134Z,54.06
2023-11-23T10:49:37.594Z,54.49
2023-11-23T10:52:09.725Z,54.28
2023-11-23T10:54:38.332Z,54.27
2023-11-23T10:57:09.980Z,54.65
2023-11-23T10:59:42.656Z,54.36
2023-11-23T11:02:13.544Z,54.24
2023-11-23T11:04:42.061Z,54.24
2023-11-23T11:07:12.490Z,54.51
2023-11-23T11:09:40.841Z,55.33
2023-11-23T11:12:15.181Z,55.42
2023-11-23T11:14:52.536Z,55.29
2023-11-23T11:17:35.039Z,55.30
2023-11-23T11:20:10.514Z,55.53
2023-11-23T11:22:38.340Z,56.23
2023-11-23T11:25:08.952Z,55.57
2023-11-23T11:27:36.821Z,55.29
2023-11-23T11:30:13.058Z,55.22
2023-11-23T11:32:42.243Z,55.69
2023-11-23T11:35:10.427Z,55.44
2023-11-23T11:37:43.125Z,55.17
2023-11-23T11:40:13.102Z,54.70
2023-11-23T11:42:42.183Z,55.46
2023-11-23T11:45:13.984Z,55.52
2023-11-23T11:47:42.897Z,55.65
2023-11-23T11:50:14.904Z,55.35
2023-11-23T11:52:42.818Z,55.79
2023-11-23T11:55:11.070Z,55.81
2023-11-23T11:57:42.314Z,55.57
2023-11-23T12:00:11.121Z,55.50
2023-11-23T12:02:41.810Z,55.37
2023-11-23T12:05:10.707Z,55.04
2023-11-23T12:07:38.451Z,55.19
2023-11-23T12:10:08.946Z,55.12
2023-11-23T12:12:49.200Z,55.12
2023-11-23T12:15:21.113Z,56.00
2023-11-23T12:17:51.583Z,56.42
2023-11-23T12:20:20.026Z,55.77
2023-11-23T12:22:47.777Z,56.02
2023-11-23T12:25:19.587Z,55.87
2023-11-23T12:27:47.610Z,55.81
2023-11-23T12:30:18.816Z,55.82
2023-11-23T12:32:46.624Z,56.28
2023-11-23T12:35:15.160Z,55.97
2023-11-23T12:37:43.125Z,56.22
2023-11-23T12:40:13.112Z,55.96
2023-11-23T12:42:41.449Z,56.11
2023-11-23T12:45:10.465Z,56.34
2023-11-23T12:47:41.217Z,56.68
2023-11-23T12:50:12.647Z,56.73
2023-11-23T12:52:41.073Z,57.36
2023-11-23T12:55:10.422Z,57.14
2023-11-23T12:57:41.897Z,56.87
2023-11-23T13:00:23.178Z,56.73
2023-11-23T13:02:51.779Z,56.85
2023-11-23T13:05:20.104Z,57.18
2023-11-23T13:07:47.926Z,57.27
2023-11-23T13:10:17.267Z,57.72
2023-11-23T13:12:46.092Z,57.88
2023-11-23T13:15:15.425Z,57.89
2023-11-23T13:17:44.672Z,58.30
2023-11-23T13:20:13.144Z,58.38
2023-11-23T13:22:42.645Z,58.43
2023-11-23T13:25:13.453Z,58.60
2023-11-23T13:27:44.229Z,57.73
2023-11-23T13:30:13.127Z,57.65
2023-11-23T13:32:43.352Z,58.35
2023-11-23T13:35:12.199Z,57.71
2023-11-23T13:37:40.348Z,58.08
2023-11-23T13:40:10.584Z,58.67
2023-11-23T13:42:39.013Z,58.83
2023-11-23T13:45:09.373Z,59.28
2023-11-23T13:47:37.748Z,59.87
2023-11-23T13:50:10.238Z,60.33
2023-11-23T13:52:38.641Z,60.75
2023-11-23T13:55:07.030Z,60.63
2023-11-23T13:57:34.870Z,60.85
2023-11-23T14:00:12.916Z,61.63
2023-11-23T14:02:41.430Z,61.39
2023-11-23T14:05:11.233Z,61.92
2023-11-23T14:07:39.576Z,61.82
2023-11-23T14:10:10.504Z,60.96
2023-11-23T14:12:38.474Z,61.55
2023-11-23T14:15:07.595Z,61.40
2023-11-23T14:17:35.419Z,60.68
2023-11-23T14:20:07.881Z,60.68
2023-11-23T14:22:36.387Z,61.04
2023-11-23T14:25:04.970Z,60.25
2023-11-23T14:27:32.784Z,59.90
2023-11-23T14:30:01.159Z,59.59
2023-11-23T14:32:29.199Z,59.19
2023-11-23T14:34:57.307Z,59.30
2023-11-23T14:37:25.064Z,59.10
2023-11-23T14:39:53.642Z,58.93
2023-11-23T14:42:21.457Z,58.70
2023-11-23T14:44:49.609Z,58.78
2023-11-23T14:47:20.710Z,59.00
2023-11-23T14:49:50.103Z,60.48
2023-11-23T14:52:21.073Z,61.28
2023-11-23T14:54:49.897Z,61.48
2023-11-23T14:57:17.922Z,61.65
2023-11-23T14:59:46.687Z,61.94
2023-11-23T15:02:15.697Z,62.57
2023-11-23T15:04:43.881Z,61.96
2023-11-23T15:07:11.706Z,61.81
2023-11-23T15:09:42.505Z,61.09
2023-11-23T15:12:15.507Z,61.13
2023-11-23T15:14:46.453Z,60.62
2023-11-23T15:17:14.419Z,61.20
2023-11-23T15:19:42.527Z,61.11
2023-11-23T15:22:11.527Z,61.02
2023-11-23T15:24:39.978Z,61.61
2023-11-23T15:27:08.958Z,61.73
2023-11-23T15:29:37.212Z,61.53
2023-11-23T15:32:07.533Z,61.77
2023-11-23T15:34:35.938Z,61.42
2023-11-23T15:37:04.851Z,60.98
2023-11-23T15:39:34.234Z,60.97
2023-11-23T15:42:05.301Z,61.41
2023-11-23T15:44:33.637Z,61.42
2023-11-23T15:47:03.827Z,60.93
2023-11-23T15:49:32.751Z,61.29
2023-11-23T15:52:01.065Z,60.93
2023-11-23T15:54:29.621Z,60.60
2023-11-23T15:56:57.445Z,61.05
2023-11-23T15:59:25.900Z,61.17
2023-11-23T16:01:54.833Z,60.74
2023-11-23T16:04:23.615Z,60.66
2023-11-23T16:06:51.413Z,60.73
2023-11-23T16:09:20.914Z,60.44
2023-11-23T16:11:48.884Z,59.97
2023-11-23T16:14:17.241Z,59.34
2023-11-23T16:16:45.165Z,59.54
2023-11-23T16:19:13.715Z,59.34
2023-11-23T16:21:41.770Z,59.33
2023-11-23T16:24:12.109Z,58.66
2023-11-23T16:26:40.666Z,58.40
2023-11-23T16:29:12.267Z,58.18
2023-11-23T16:31:46.110Z,58.38
2023-11-23T16:34:17.016Z,58.61
2023-11-23T16:36:47.387Z,58.42
2023-11-23T16:39:18.728Z,59.04
2023-11-23T16:41:49.076Z,58.32
2023-11-23T16:44:17.789Z,58.92
2023-11-23T16:46:47.265Z,59.07
2023-11-23T16:49:15.684Z,58.99
2023-11-23T16:51:44.113Z,59.30
2023-11-23T16:54:12.399Z,59.17
2023-11-23T16:56:40.358Z,59.02
2023-11-23T16:59:11.702Z,59.11
2023-11-23T17:01:41.704Z,58.88
2023-11-23T17:04:10.198Z,58.93
2023-11-23T17:06:40.647Z,58.86
2023-11-23T17:09:11.560Z,59.00
2023-11-23T17:11:39.454Z,58.42
2023-11-23T17:14:11.616Z,58.17
2023-11-23T17:16:40.760Z,58.01
2023-11-23T17:19:08.930Z,58.28
2023-11-23T17:21:37.086Z,58.63
2023-11-23T17:24:07.342Z,58.20
2023-11-23T17:26:35.254Z,57.51
2023-11-23T17:29:04.529Z,57.66
2023-11-23T17:31:34.385Z,57.64
2023-11-23T17:34:03.232Z,57.35
2023-11-23T17:36:31.761Z,57.24
2023-11-23T17:39:02.111Z,56.99
2023-11-23T17:41:31.890Z,56.64
2023-11-23T17:44:07.444Z,56.55
2023-11-23T17:46:36.935Z,56.60
2023-11-23T17:49:09.521Z,56.97
2023-11-23T17:51:40.788Z,57.11
2023-11-23T17:54:09.232Z,57.46
2023-11-23T17:56:38.056Z,56.86
2023-11-23T17:59:25.452Z,56.95
2023-11-23T18:01:59.126Z,57.23
2023-11-23T18:04:28.057Z,56.81
2023-11-23T18:06:56.378Z,55.81
2023-11-23T18:09:24.684Z,55.78
2023-11-23T18:11:52.715Z,55.67
2023-11-23T18:14:20.837Z,55.50
2023-11-23T18:16:48.891Z,55.19
2023-11-23T18:19:17.076Z,55.34
2023-11-23T18:21:44.905Z,55.29
2023-11-23T18:24:13.647Z,55.26
2023-11-23T18:26:41.584Z,54.86
2023-11-23T18:29:09.760Z,55.07
2023-11-23T18:31:39.697Z,55.05
2023-11-23T18:34:10.830Z,55.21
2023-11-23T18:36:39.443Z,55.00
2023-11-23T18:39:10.933Z,54.71
2023-11-23T18:41:39.038Z,55.13
2023-11-23T18:44:07.326Z,55.35
2023-11-23T18:46:35.156Z,56.32
2023-11-23T18:49:04.220Z,56.49
2023-11-23T18:51:32.712Z,57.36
2023-11-23T18:54:02.338Z,57.58
2023-11-23T18:56:30.319Z,57.56
2023-11-23T18:58:58.573Z,57.92
2023-11-23T19:01:26.639Z,58.67
2023-11-23T19:03:55.874Z,57.90
2023-11-23T19:06:25.224Z,58.18
2023-11-23T19:08:53.683Z,57.79
2023-11-23T19:11:21.701Z,57.61
2023-11-23T19:13:49.868Z,57.06
2023-11-23T19:16:18.026Z,56.76
2023-11-23T19:18:49.736Z,56.79
2023-11-23T19:21:19.640Z,56.07
2023-11-23T19:23:48.093Z,55.93
2023-11-23T19:26:17.601Z,55.74
2023-11-23T19:28:46.639Z,55.61
2023-11-23T19:31:16.064Z,55.65
2023-11-23T19:33:44.810Z,55.45
2023-11-23T19:36:13.886Z,55.60
2023-11-23T19:38:42.411Z,55.24
2023-11-23T19:41:10.929Z,55.24
2023-11-23T19:43:39.332Z,54.55
2023-11-23T19:46:08.428Z,55.08
2023-11-23T19:48:37.009Z,54.54
2023-11-23T19:51:07.627Z,54.07
2023-11-23T19:53:42.733Z,54.41
2023-11-23T19:56:10.614Z,54.28
2023-11-23T19:58:38.755Z,54.31
2023-11-23T20:01:06.801Z,54.06
2023-11-23T20:03:35.285Z,54.49
2023-11-23T20:06:04.199Z,54.57
2023-11-23T20:08:33.747Z,54.91
2023-11-23T20:11:01.926Z,54.68
2023-11-23T20:13:30.056Z,55.38
2023-11-23T20:15:58.726Z,54.90
2023-11-23T20:18:26.987Z,54.57
2023-11-23T20:20:55.173Z,54.68
2023-11-23T20:23:23.408Z,54.62
2023-11-23T20:25:51.273Z,54.31
2023-11-23T20:28:19.496Z,54.42
2023-11-23T20:30:48.202Z,54.27
2023-11-23T20:33:18.423Z,53.99
2023-11-23T20:35:48.344Z,53.92
2023-11-23T20:38:16.562Z,54.27
2023-11-23T20:40:46.242Z,54.39
2023-11-23T20:43:15.126Z,53.98
2023-11-23T20:45:43.560Z,54.38
2023-11-23T20:48:11.793Z,54.01
2023-11-23T20:50:40.505Z,54.52
2023-11-23T20:53:08.594Z,54.25
2023-11-23T20:55:36.622Z,54.01
2023-11-23T20:58:05.111Z,53.85
2023-11-23T21:00:33.162Z,53.78
2023-11-23T21:03:02.067Z,53.22
2023-11-23T21:05:31.540Z,53.25
2023-11-23T21:08:00.918Z,53.50
2023-11-23T21:10:29.245Z,54.36
2023-11-23T21:12:57.679Z,53.92
2023-11-23T21:15:25.415Z,53.87
2023-11-23T21:17:53.547Z,53.83
2023-11-23T21:20:21.646Z,53.60
2023-11-23T21:22:49.715Z,54.76
2023-11-23T21:25:17.711Z,54.48
2023-11-23T21:27:46.698Z,54.62
2023-11-23T21:30:14.745Z,54.42
2023-11-23T21:32:42.871Z,54.33
2023-11-23T21:35:11.456Z,54.74
2023-11-23T21:37:39.755Z,55.04
2023-11-23T21:40:10.396Z,54.79
2023-11-23T21:42:38.724Z,54.95
2023-11-23T21:45:07.791Z,55.48
2023-11-23T21:47:38.288Z,55.60
2023-11-23T21:50:08.257Z,55.29
2023-11-23T21:52:37.516Z,55.22
2023-11-23T21:55:05.663Z,55.44
2023-11-23T21:57:33.748Z,55.44
2023-11-23T22:00:02.648Z,54.92
2023-11-23T22:02:32.691Z,55.35
2023-11-23T22:05:03.550Z,55.22
2023-11-23T22:07:31.792Z,55.47
2023-11-23T22:09:59.537Z,55.02
2023-11-23T22:12:27.853Z,55.15
2023-11-23T22:14:55.684Z,55.39
2023-11-23T22:17:24.155Z,54.88
2023-11-23T22:19:53.129Z,55.25
2023-11-23T22:22:21.566Z,55.35
2023-11-23T22:24:50.691Z,55.09
2023-11-23T22:27:20.263Z,54.57
2023-11-23T22:29:48.423Z,54.26
2023-11-23T22:32:19.861Z,54.48
2023-11-23T22:34:48.030Z,54.19
2023-11-23T22:37:16.380Z,54.49
2023-11-23T22:39:44.747Z,54.09
2023-11-23T22:42:13.807Z,54.43
2023-11-23T22:44:42.126Z,53.99
2023-11-23T22:47:10.287Z,53.48
2023-11-23T22:49:40.544Z,53.92
2023-11-23T22:52:08.882Z,54.23
2023-11-23T22:54:36.698Z,53.84
2023-11-23T22:57:05.375Z,53.64
2023-11-23T22:59:33.337Z,53.88
2023-11-23T23:02:03.898Z,53.46
2023-11-23T23:04:32.788Z,53.81
2023-11-23T23:07:06.410Z,53.50
2023-11-23T23:09:34.582Z,53.65
2023-11-23T23:12:03.277Z,54.11
2023-11-23T23:14:32.838Z,53.41
2023-11-23T23:17:01.571Z,53.56
2023-11-23T23:19:29.553Z,54.17
2023-11-23T23:21:57.659Z,54.40
2023-11-23T23:24:25.682Z,53.67
2023-11-23T23:26:53.777Z,53.81
2023-11-23T23:29:21.942Z,53.71
2023-11-23T23:31:50.205Z,53.73
2023-11-23T23:34:18.110Z,54.21
2023-11-23T23:36:46.946Z,54.19
2023-11-23T23:39:14.909Z,54.13
2023-11-23T23:41:43.295Z,54.24
2023-11-23T23:44:11.148Z,54.79
2023-11-23T23:46:40.467Z,54.54
2023-11-23T23:49:08.420Z,54.69
2023-11-23T23:51:36.664Z,54.89
2023-11-23T23:54:05.066Z,55.16
2023-11-23T23:56:33.550Z,55.14
2023-11-23T23:59:01.339Z,55.24
